Maple Lake, Minnesota
Current Conditions -  °F | °C
As of 6:35 AM on Friday 24 Oct 2014 (Local Time) from KMGG Reporting Station
Clear Clear  
Wind Chill: 46°   Ceiling: Unl
Heat Index: 48°   Visibility: 10mi
Dew Point: 44°   Wind: 5mph
Humidity: 84%   Direction: 140°SE
Pressure: 29.87"   Gusts: NA
Location:  45.23°N, 94°W
Report Text: KMGG 241135Z AUTO 14004KT 10SM CLR 09/07 A2987 RMK AO2 T00900065
Loading
Personal Weather Stations






























Interactive Weather Map New forecast layout! Learn more

10-Day Weather Forecast

Advertisements
Track Severe Weather on mobile